CU-0004 weather

Guardalavaca Airport
Yaguajay, HolguĂ­n, Cuba

Public forecast

Using degrees Celsius for public forecast. Weather courtesy of forecast.io.

METAR (pilot weather report)

Closest report is Frank Pais International Airport, 34.0 nm (62.9 km) SW. Retrieved 2019/05/23 12:50 UTC (45 minutes ago):

MUHG 231250Z 11011KT 9999 SCT025 27/24 Q1016

TAF (pilot weather forecast)

Closest forecast is Frank Pais International Airport, 34.0 nm (62.9 km) SW. Retrieved 2019/05/23 12:03 UTC (2 hours ago):

TAF MUHG 231100Z 2312/2412 VRB03KT 9000 SCT020 BECMG 2315/2317 07012KT TEMPO 2318/2324 5000 SHRA SCT018CB BKN020 BECMG 2403/2405 VRB03KT